EJU47MG LFMN-LGAV
Flight info
| Callsign | EJU47MG |
|---|---|
| Flight time | N/A |
| Altitude | 37000 |
| Route | SODRI DCT RAPUR DCT RATAP DCT BTA DCT DOKAR DCT SUNEV DCT GILIO DCT DOGUS DCT NOSTO UN7 NEMES |
| Aircraft | A320/M-SDE2E3FGHIJ1RWXYZ/LB1 |
Departure
| Time | N/A |
|---|---|
| Airport | Nice-Côte d'Azur Airport (LFMN) |
Arrival
| Time | 2026-04-30 21:11 |
|---|---|
| Airport | Athens Eleftherios Venizelos International Airport (LGAV) |
| Time | Latitude | Longitude | Altitude | Speed | Heading |
|---|---|---|---|---|---|
| 2026-04-30 21:08 | 37.84789 | 23.84902 | 2165 ft | 199 kts | 36° |
| 2026-04-30 21:08 | 37.85837 | 23.85895 | 1920 ft | 182 kts | 36° |
| 2026-04-30 21:08 | 37.86484 | 23.86508 | 1777 ft | 170 kts | 36° |
| 2026-04-30 21:08 | 37.87382 | 23.87360 | 1571 ft | 151 kts | 35° |
| 2026-04-30 21:09 | 37.88175 | 23.88099 | 1342 ft | 140 kts | 36° |
| 2026-04-30 21:09 | 37.88937 | 23.88833 | 1114 ft | 133 kts | 36° |
| 2026-04-30 21:09 | 37.89660 | 23.89526 | 925 ft | 132 kts | 36° |
| 2026-04-30 21:09 | 37.90395 | 23.90226 | 804 ft | 133 kts | 37° |
| 2026-04-30 21:10 | 37.91138 | 23.90924 | 602 ft | 134 kts | 39° |
| 2026-04-30 21:10 | 37.91871 | 23.91622 | 433 ft | 132 kts | 39° |
| 2026-04-30 21:10 | 37.92604 | 23.92325 | 279 ft | 130 kts | 38° |
| 2026-04-30 21:10 | 37.93233 | 23.92922 | 275 ft | 91 kts | 36° |
| 2026-04-30 21:11 | 37.93604 | 23.93275 | 284 ft | 47 kts | 36° |
| 2026-04-30 21:11 | 37.93794 | 23.93454 | 282 ft | 21 kts | 36° |
| 2026-04-30 21:11 | 37.93871 | 23.93562 | 283 ft | 15 kts | 55° |
| 2026-04-30 21:11 | 37.93923 | 23.93674 | 283 ft | 14 kts | 66° |
| 2026-04-30 21:12 | 37.93953 | 23.93769 | 284 ft | 8 kts | 79° |
| 2026-04-30 21:12 | 37.93932 | 23.93812 | 286 ft | 4 kts | 145° |
| 2026-04-30 21:12 | 37.93912 | 23.93822 | 284 ft | 3 kts | 168° |
| 2026-04-30 21:12 | 37.93871 | 23.93802 | 288 ft | 7 kts | 217° |
| 2026-04-30 21:13 | 37.93814 | 23.93749 | 288 ft | 12 kts | 216° |
| 2026-04-30 21:13 | 37.93755 | 23.93692 | 287 ft | 9 kts | 218° |
| 2026-04-30 21:13 | 37.93700 | 23.93645 | 282 ft | 11 kts | 200° |
| 2026-04-30 21:13 | 37.93646 | 23.93678 | 282 ft | 8 kts | 146° |
| 2026-04-30 21:14 | 37.93580 | 23.93667 | 281 ft | 10 kts | 216° |
| 2026-04-30 21:14 | 37.93522 | 23.93612 | 284 ft | 13 kts | 217° |
| 2026-04-30 21:14 | 37.93458 | 23.93551 | 282 ft | 10 kts | 217° |
| 2026-04-30 21:14 | 37.93402 | 23.93516 | 280 ft | 10 kts | 180° |
| 2026-04-30 21:15 | 37.93339 | 23.93587 | 280 ft | 13 kts | 127° |
| 2026-04-30 21:15 | 37.93284 | 23.93680 | 283 ft | 16 kts | 127° |
| 2026-04-30 21:15 | 37.93212 | 23.93803 | 284 ft | 17 kts | 127° |
| 2026-04-30 21:15 | 37.93142 | 23.93921 | 284 ft | 16 kts | 127° |
| 2026-04-30 21:16 | 37.93091 | 23.94011 | 286 ft | 7 kts | 110° |
| 2026-04-30 21:16 | 37.93109 | 23.94064 | 287 ft | 8 kts | 40° |
| 2026-04-30 21:16 | 37.93183 | 23.94134 | 286 ft | 15 kts | 37° |
| 2026-04-30 21:16 | 37.93263 | 23.94212 | 285 ft | 14 kts | 39° |
| 2026-04-30 21:17 | 37.93281 | 23.94296 | 290 ft | 8 kts | 111° |
| 2026-04-30 21:17 | 37.93250 | 23.94349 | 286 ft | 7 kts | 127° |
| 2026-04-30 21:17 | 37.93222 | 23.94394 | 286 ft | 6 kts | 128° |
| 2026-04-30 21:17 | 37.93190 | 23.94413 | 286 ft | 6 kts | 184° |
| 2026-04-30 21:18 | 37.93150 | 23.94386 | 291 ft | 6 kts | 219° |
| 2026-04-30 21:18 | 37.93137 | 23.94370 | 287 ft | 0 kts | 226° |